Time;durP1;ratioP1;P1;durP2;ratioP2;P2;SDS_P1;SDS_P2;PMS_P1;PMS_P2;Temp;Humidity;BMP_temperature;BMP_pressure;BME280_temperature;BME280_humidity;BME280_pressure;Samples;Min_cycle;Max_cycle;Signal;HPM_P1;HPM_P2
2023/08/19 00:00:23;;;;;;;16.15;6.80;;;24.20;99.90;;;;;;2494691;23;20432;-75
2023/08/19 00:01:24;;;;;;;13.55;6.60;;;24.20;99.90;;;;;;2494155;23;20504;-75
2023/08/19 00:02:24;;;;;;;11.75;6.78;;;24.20;99.90;;;;;;2494030;23;20026;-75
2023/08/19 00:03:26;;;;;;;12.32;7.90;;;24.20;99.90;;;;;;2494632;23;20036;-75
2023/08/19 00:04:26;;;;;;;15.18;7.28;;;24.20;99.90;;;;;;2493288;23;20011;-75
2023/08/19 00:05:27;;;;;;;12.07;7.53;;;24.20;99.90;;;;;;2495448;23;20063;-75
2023/08/19 00:06:41;;;;;;;13.30;7.82;;;24.20;99.90;;;;;;2494889;23;20710;-75
2023/08/19 00:07:41;;;;;;;10.35;7.70;;;24.20;99.90;;;;;;2495359;23;20376;-75
2023/08/19 00:08:42;;;;;;;12.50;8.23;;;24.20;99.90;;;;;;2493369;23;20110;-75
2023/08/19 00:09:42;;;;;;;12.75;7.65;;;24.20;99.90;;;;;;2493417;23;20007;-75
2023/08/19 00:10:43;;;;;;;13.02;7.70;;;24.20;99.90;;;;;;2493352;23;20031;-75
2023/08/19 00:11:44;;;;;;;10.68;7.93;;;24.20;99.90;;;;;;2494505;23;20009;-75
2023/08/19 00:12:44;;;;;;;13.73;7.93;;;24.20;99.90;;;;;;2493617;23;20114;-75
2023/08/19 00:13:45;;;;;;;12.63;7.18;;;24.20;99.90;;;;;;2483241;23;20095;-75
2023/08/19 00:14:47;;;;;;;13.15;7.13;;;24.20;99.90;;;;;;2483652;23;20008;-75
2023/08/19 00:15:48;;;;;;;13.25;7.45;;;24.10;99.90;;;;;;2496169;23;20015;-75
2023/08/19 00:16:48;;;;;;;11.02;7.07;;;24.20;99.90;;;;;;2496890;23;20010;-75
2023/08/19 00:17:49;;;;;;;12.07;7.53;;;24.20;99.90;;;;;;2483777;23;20089;-75
2023/08/19 00:18:49;;;;;;;10.57;6.68;;;24.20;99.90;;;;;;2482855;23;20079;-75
2023/08/19 00:19:51;;;;;;;10.82;6.50;;;24.10;99.90;;;;;;2494754;23;20749;-75
2023/08/19 00:20:51;;;;;;;11.88;6.95;;;24.10;99.90;;;;;;2493630;23;20042;-75
2023/08/19 00:21:52;;;;;;;8.45;6.40;;;24.10;99.90;;;;;;2495161;23;20007;-75
2023/08/19 00:22:52;;;;;;;8.70;6.30;;;24.10;99.90;;;;;;2495065;23;20007;-75
2023/08/19 00:23:54;;;;;;;8.52;6.75;;;24.10;99.90;;;;;;2496045;23;20079;-75
2023/08/19 00:24:54;;;;;;;10.75;6.38;;;24.10;99.90;;;;;;2496232;23;20056;-75
2023/08/19 00:25:55;;;;;;;8.85;6.03;;;24.10;99.90;;;;;;2494380;23;20480;-75
2023/08/19 00:26:57;;;;;;;10.93;6.05;;;24.10;99.90;;;;;;2494514;23;20353;-75
2023/08/19 00:27:59;;;;;;;8.77;5.72;;;24.10;99.90;;;;;;2494954;23;20428;-75
2023/08/19 00:28:59;;;;;;;9.95;5.65;;;24.10;99.90;;;;;;2494511;23;20010;-75
2023/08/19 00:30:00;;;;;;;8.43;5.80;;;24.10;99.90;;;;;;2494391;23;20010;-75
2023/08/19 00:31:01;;;;;;;9.63;4.75;;;24.10;99.90;;;;;;2481855;23;20433;-75
2023/08/19 00:32:02;;;;;;;6.72;5.25;;;24.10;99.90;;;;;;2481062;23;20031;-75
2023/08/19 00:33:03;;;;;;;6.93;5.30;;;24.10;99.90;;;;;;2482255;23;20706;-75
2023/08/19 00:34:05;;;;;;;9.13;5.32;;;24.10;99.90;;;;;;2494468;23;20360;-75
2023/08/19 00:35:06;;;;;;;7.85;5.20;;;24.10;99.90;;;;;;2496612;23;20003;-75
2023/08/19 00:36:06;;;;;;;19.40;5.57;;;24.10;99.90;;;;;;2495625;23;20003;-75
2023/08/19 00:37:07;;;;;;;8.77;4.95;;;24.10;99.90;;;;;;2496674;23;20010;-75
2023/08/19 00:38:07;;;;;;;8.02;5.30;;;24.10;99.90;;;;;;2495478;23;20015;-75
2023/08/19 00:39:09;;;;;;;7.65;5.10;;;24.10;99.90;;;;;;2495997;23;20000;-75
2023/08/19 00:40:16;;;;;;;10.65;5.05;;;24.10;99.90;;;;;;2495519;23;20022;-75
2023/08/19 00:41:18;;;;;;;9.70;4.95;;;24.10;99.90;;;;;;2494168;23;20011;-75
2023/08/19 00:42:19;;;;;;;10.65;5.28;;;24.10;99.90;;;;;;2493304;23;20368;-75
2023/08/19 00:43:19;;;;;;;8.88;4.85;;;24.10;99.90;;;;;;2493221;23;20007;-75
2023/08/19 00:44:20;;;;;;;8.00;5.00;;;24.10;99.90;;;;;;2494702;23;20015;-75
2023/08/19 00:45:20;;;;;;;6.93;4.97;;;24.10;99.90;;;;;;2494911;23;20015;-75
2023/08/19 00:46:21;;;;;;;7.32;4.82;;;24.10;99.90;;;;;;2495791;23;20011;-75
2023/08/19 00:47:23;;;;;;;5.88;5.22;;;24.10;99.90;;;;;;2496214;23;20710;-75
2023/08/19 00:48:25;;;;;;;8.18;4.80;;;24.10;99.90;;;;;;2495898;23;20049;-75
2023/08/19 00:49:25;;;;;;;7.70;4.72;;;24.10;99.90;;;;;;2496566;23;20035;-75
2023/08/19 00:50:27;;;;;;;6.72;4.78;;;24.10;99.90;;;;;;2494790;23;20007;-75
2023/08/19 00:51:27;;;;;;;8.98;5.82;;;24.10;99.90;;;;;;2494205;23;20055;-75
2023/08/19 00:52:28;;;;;;;8.05;4.40;;;24.10;99.90;;;;;;2480140;23;20508;-75
2023/08/19 00:53:29;;;;;;;8.25;4.93;;;24.10;99.90;;;;;;2494495;23;20007;-75
2023/08/19 00:54:30;;;;;;;7.35;5.13;;;24.10;99.90;;;;;;2493974;23;20776;-75
2023/08/19 00:55:31;;;;;;;7.45;4.60;;;24.10;99.90;;;;;;2493971;23;20376;-75
2023/08/19 00:56:32;;;;;;;9.35;5.28;;;24.10;99.90;;;;;;2494336;23;20019;-75
2023/08/19 00:57:35;;;;;;;7.85;5.22;;;24.10;99.90;;;;;;2493197;23;20082;-75
2023/08/19 00:58:36;;;;;;;7.70;4.65;;;24.10;99.90;;;;;;2495069;23;20015;-75
2023/08/19 00:59:36;;;;;;;9.40;4.72;;;24.10;99.90;;;;;;2480859;23;20019;-75
2023/08/19 01:00:38;;;;;;;7.90;4.80;;;24.10;99.90;;;;;;2482869;23;20018;-75
2023/08/19 01:01:38;;;;;;;6.25;4.95;;;24.10;99.90;;;;;;2495354;23;20314;-75
2023/08/19 01:02:39;;;;;;;7.20;4.70;;;24.10;99.90;;;;;;2493892;23;20066;-75
2023/08/19 01:03:40;;;;;;;8.82;4.80;;;24.10;99.90;;;;;;2495950;23;20059;-75
2023/08/19 01:04:40;;;;;;;8.07;4.55;;;24.10;99.90;;;;;;2495121;23;20044;-75
2023/08/19 01:05:56;;;;;;;6.32;4.38;;;24.10;99.90;;;;;;2483904;23;20092;-75
2023/08/19 01:07:25;;;;;;;8.68;5.22;;;24.10;99.90;;;;;;2486768;23;20190;-75
2023/08/19 01:08:33;;;;;;;7.40;4.28;;;24.00;99.90;;;;;;2495520;23;20583;-75
2023/08/19 01:09:55;;;;;;;8.23;5.03;;;24.00;99.90;;;;;;2495901;23;20007;-75
2023/08/19 01:11:14;;;;;;;9.43;5.00;;;24.00;99.90;;;;;;2493208;23;20004;-75
2023/08/19 01:12:27;;;;;;;4.70;3.97;;;23.90;99.90;;;;;;2493131;23;20056;-75
2023/08/19 01:13:35;;;;;;;6.80;4.82;;;23.90;99.90;;;;;;2494538;23;20049;-75
2023/08/19 01:15:04;;;;;;;6.13;4.75;;;24.00;99.90;;;;;;2493972;23;20563;-75
2023/08/19 01:16:14;;;;;;;9.07;4.88;;;24.00;99.90;;;;;;2493268;23;20074;-74
2023/08/19 01:17:15;;;;;;;;;;;23.90;99.90;;;;;;2493123;23;20011;-75
2023/08/19 01:18:17;;;;;;;8.52;4.75;;;23.80;99.90;;;;;;2492863;23;20538;-75
2023/08/19 01:19:29;;;;;;;6.35;5.18;;;23.80;99.90;;;;;;2495131;23;20035;-75
2023/08/19 01:20:31;;;;;;;6.55;4.80;;;23.90;99.90;;;;;;2494569;23;20018;-75
2023/08/19 01:21:32;;;;;;;13.23;5.07;;;23.90;99.90;;;;;;2493642;23;20015;-75
2023/08/19 01:22:38;;;;;;;5.18;4.57;;;23.90;99.90;;;;;;2492554;23;20011;-75
2023/08/19 01:23:43;;;;;;;8.02;4.80;;;23.90;99.90;;;;;;2494183;23;20035;-75
2023/08/19 01:24:46;;;;;;;7.15;5.10;;;23.90;99.90;;;;;;2494221;23;20011;-75
2023/08/19 01:25:47;;;;;;;6.20;4.95;;;23.90;99.90;;;;;;2494690;23;20011;-75
2023/08/19 01:26:48;;;;;;;7.47;4.60;;;23.90;99.90;;;;;;2483650;23;20035;-75
2023/08/19 01:27:48;;;;;;;6.57;5.35;;;23.90;99.90;;;;;;2483938;23;20007;-75
2023/08/19 01:28:50;;;;;;;6.75;4.63;;;23.90;99.90;;;;;;2496090;23;20010;-75
2023/08/19 01:29:51;;;;;;;10.75;5.50;;;23.90;99.90;;;;;;2495923;23;20622;-75
2023/08/19 01:30:51;;;;;;;8.73;4.78;;;23.90;99.90;;;;;;2495860;23;20007;-75
2023/08/19 01:31:52;;;;;;;6.93;5.32;;;23.90;99.90;;;;;;2495239;23;20421;-75
2023/08/19 01:32:52;;;;;;;5.15;4.68;;;23.90;99.90;;;;;;2494972;23;20087;-75
2023/08/19 01:33:53;;;;;;;10.23;5.25;;;23.90;99.90;;;;;;2496015;23;20008;-75
2023/08/19 01:34:54;;;;;;;9.23;5.43;;;23.90;99.90;;;;;;2495849;23;20018;-75
2023/08/19 01:36:13;;;;;;;11.68;5.53;;;23.90;99.90;;;;;;2495978;23;20007;-75
2023/08/19 01:37:21;;;;;;;8.48;5.35;;;23.90;99.90;;;;;;2495496;23;20003;-75
2023/08/19 01:38:36;;;;;;;8.93;5.35;;;23.90;99.90;;;;;;2496078;23;20061;-75
2023/08/19 01:39:38;;;;;;;9.15;5.10;;;23.90;99.90;;;;;;2495847;23;20073;-75
2023/08/19 01:40:39;;;;;;;7.18;5.32;;;23.90;99.90;;;;;;2494530;23;20856;-75
2023/08/19 01:41:41;;;;;;;6.30;5.38;;;23.90;99.90;;;;;;2494615;23;20086;-75
2023/08/19 01:42:43;;;;;;;10.98;4.75;;;23.90;99.90;;;;;;2493350;23;20079;-75
2023/08/19 01:43:45;;;;;;;7.57;5.13;;;23.90;99.90;;;;;;2495955;23;20058;-75
2023/08/19 01:44:46;;;;;;;10.32;5.70;;;23.90;99.90;;;;;;2495402;23;20015;-75
2023/08/19 01:45:46;;;;;;;6.35;5.53;;;23.90;99.90;;;;;;2495445;23;20713;-75
2023/08/19 01:46:47;;;;;;;8.77;5.57;;;23.90;99.90;;;;;;2496346;23;20328;-75
2023/08/19 01:47:54;;;;;;;8.77;5.50;;;23.80;99.90;;;;;;2496390;23;20007;-75
2023/08/19 01:48:55;;;;;;;9.05;5.25;;;23.80;99.90;;;;;;2495544;23;20054;-75
2023/08/19 01:49:57;;;;;;;11.27;5.30;;;23.80;99.90;;;;;;2496424;23;20054;-75
2023/08/19 01:50:57;;;;;;;8.90;5.53;;;23.80;99.90;;;;;;2493594;23;20002;-75
2023/08/19 01:51:58;;;;;;;6.97;5.35;;;23.80;99.90;;;;;;2494178;23;20486;-75
2023/08/19 01:52:58;;;;;;;5.88;4.90;;;23.80;99.90;;;;;;2492863;23;20446;-75
2023/08/19 01:53:59;;;;;;;9.40;5.38;;;23.80;99.90;;;;;;2481117;23;20008;-75
2023/08/19 01:54:59;;;;;;;8.32;4.63;;;23.80;99.90;;;;;;2481247;23;20878;-75
2023/08/19 01:56:00;;;;;;;7.70;4.38;;;23.80;99.90;;;;;;2491982;23;20031;-75
2023/08/19 01:57:01;;;;;;;6.70;5.05;;;23.80;99.90;;;;;;2494670;23;20062;-75
2023/08/19 01:58:01;;;;;;;8.57;4.95;;;23.80;99.90;;;;;;2493996;23;20752;-75
2023/08/19 01:59:02;;;;;;;8.70;5.15;;;23.80;99.90;;;;;;2492566;23;20065;-75
2023/08/19 02:00:04;;;;;;;9.48;5.68;;;23.80;99.90;;;;;;2494075;23;20003;-75
2023/08/19 02:01:04;;;;;;;12.77;5.28;;;23.80;99.90;;;;;;2492280;23;20004;-75
2023/08/19 02:02:05;;;;;;;7.60;5.15;;;23.70;99.90;;;;;;2492039;23;20039;-75
2023/08/19 02:03:07;;;;;;;10.57;5.18;;;23.70;99.90;;;;;;2494472;23;20007;-75
2023/08/19 02:04:07;;;;;;;11.07;5.28;;;23.70;99.90;;;;;;2495762;23;20440;-75
2023/08/19 02:05:12;;;;;;;6.82;4.50;;;23.70;99.90;;;;;;2483654;23;20411;-75
2023/08/19 02:06:13;;;;;;;10.20;4.13;;;23.70;99.90;;;;;;2482888;23;20322;-75
2023/08/19 02:07:13;;;;;;;10.10;5.22;;;23.70;99.90;;;;;;2494773;23;19999;-75
2023/08/19 02:08:14;;;;;;;7.43;4.47;;;23.70;99.90;;;;;;2494439;23;20003;-75
2023/08/19 02:09:14;;;;;;;8.82;5.10;;;23.70;99.90;;;;;;2494530;23;20007;-75
2023/08/19 02:10:15;;;;;;;12.48;4.97;;;23.70;99.90;;;;;;2494125;23;20007;-75
2023/08/19 02:11:15;;;;;;;8.02;5.00;;;23.60;99.90;;;;;;2492861;23;20090;-75
2023/08/19 02:12:16;;;;;;;7.32;4.78;;;23.60;99.90;;;;;;2493814;23;20098;-75
2023/08/19 02:13:16;;;;;;;6.53;4.50;;;23.70;99.90;;;;;;2493601;23;20432;-75
2023/08/19 02:14:17;;;;;;;9.25;5.10;;;23.60;99.90;;;;;;2493656;23;20136;-75
2023/08/19 02:15:17;;;;;;;4.50;4.10;;;23.70;99.90;;;;;;2494547;23;20006;-75
2023/08/19 02:16:18;;;;;;;5.72;3.92;;;23.60;99.90;;;;;;2493915;23;20078;-75
2023/08/19 02:17:19;;;;;;;6.72;4.43;;;23.60;99.90;;;;;;2494487;23;19996;-75
2023/08/19 02:18:22;;;;;;;7.75;4.97;;;23.60;99.90;;;;;;2495583;23;20662;-75
2023/08/19 02:19:22;;;;;;;8.88;4.60;;;23.60;99.90;;;;;;2495250;23;20007;-75
2023/08/19 02:20:23;;;;;;;8.27;4.60;;;23.60;99.90;;;;;;2491897;23;20010;-75
2023/08/19 02:21:23;;;;;;;9.10;4.63;;;23.60;99.90;;;;;;2493911;23;20014;-75
2023/08/19 02:22:24;;;;;;;10.98;4.40;;;23.60;99.90;;;;;;2492571;23;20087;-75
2023/08/19 02:23:24;;;;;;;4.97;4.47;;;23.60;99.90;;;;;;2493209;23;20484;-75
2023/08/19 02:24:26;;;;;;;4.43;4.03;;;23.60;99.90;;;;;;2493737;23;20332;-75
2023/08/19 02:25:26;;;;;;;4.93;4.20;;;23.50;99.90;;;;;;2493984;23;20071;-75
2023/08/19 02:26:27;;;;;;;11.85;4.95;;;23.60;99.90;;;;;;2494489;23;20035;-75
2023/08/19 02:27:27;;;;;;;5.70;4.05;;;23.50;99.90;;;;;;2493833;23;20393;-75
2023/08/19 02:28:28;;;;;;;4.95;3.92;;;23.60;99.90;;;;;;2493180;23;20011;-75
2023/08/19 02:29:28;;;;;;;7.22;4.32;;;23.50;99.90;;;;;;2494956;23;20007;-75
2023/08/19 02:30:31;;;;;;;9.77;4.82;;;23.50;99.90;;;;;;2482002;23;20074;-75
2023/08/19 02:31:32;;;;;;;5.38;4.07;;;23.50;99.90;;;;;;2484221;23;20007;-75
2023/08/19 02:32:32;;;;;;;8.45;4.80;;;23.50;99.90;;;;;;2494278;23;20086;-75
2023/08/19 02:33:33;;;;;;;6.60;4.50;;;23.50;99.90;;;;;;2495400;23;20034;-75
2023/08/19 02:34:33;;;;;;;6.93;4.05;;;23.50;99.90;;;;;;2496219;23;20003;-75
2023/08/19 02:35:34;;;;;;;5.20;4.55;;;23.50;99.90;;;;;;2495623;23;20011;-75
2023/08/19 02:36:34;;;;;;;5.70;4.03;;;23.50;99.90;;;;;;2496122;23;20003;-75
2023/08/19 02:37:35;;;;;;;6.90;4.63;;;23.40;99.90;;;;;;2496459;23;20120;-75
2023/08/19 02:38:36;;;;;;;9.07;4.50;;;23.40;99.90;;;;;;2494829;23;20016;-75
2023/08/19 02:39:36;;;;;;;5.22;4.50;;;23.40;99.90;;;;;;2496004;23;20011;-75
2023/08/19 02:40:37;;;;;;;6.03;4.32;;;23.40;99.90;;;;;;2495403;23;20015;-75
2023/08/19 02:41:37;;;;;;;8.80;4.75;;;23.40;99.90;;;;;;2495741;23;20018;-75
2023/08/19 02:42:38;;;;;;;6.40;4.47;;;23.40;99.90;;;;;;2495293;23;20649;-75
2023/08/19 02:43:38;;;;;;;5.10;4.15;;;23.40;99.90;;;;;;2495514;23;20007;-75
2023/08/19 02:44:39;;;;;;;7.70;5.05;;;23.40;99.90;;;;;;2495847;23;20336;-75
2023/08/19 02:45:42;;;;;;;5.97;4.68;;;23.40;99.90;;;;;;2495828;23;20034;-75
2023/08/19 02:46:43;;;;;;;5.93;4.82;;;23.40;99.90;;;;;;2495561;23;20011;-75
2023/08/19 02:49:42;;;;;;;7.60;4.70;;;23.30;99.90;;;;;;2490930;23;20112;-74
2023/08/19 02:50:43;;;;;;;7.03;5.00;;;23.30;99.90;;;;;;2482250;23;20015;-74
2023/08/19 02:51:43;;;;;;;7.68;4.70;;;23.30;99.90;;;;;;2482471;23;20011;-75
2023/08/19 02:52:44;;;;;;;4.38;3.97;;;23.30;99.90;;;;;;2495583;23;20447;-75
2023/08/19 02:53:44;;;;;;;6.00;4.30;;;23.30;99.90;;;;;;2495717;23;20051;-75
2023/08/19 02:54:45;;;;;;;7.20;4.20;;;23.20;99.90;;;;;;2495912;23;20007;-75
2023/08/19 02:55:45;;;;;;;8.07;4.40;;;23.30;99.90;;;;;;2495824;23;20372;-75
2023/08/19 02:56:47;;;;;;;6.57;4.63;;;23.20;99.90;;;;;;2496000;23;20011;-75
2023/08/19 02:57:47;;;;;;;6.28;4.53;;;23.20;99.90;;;;;;2495817;23;20034;-75
2023/08/19 02:58:48;;;;;;;5.97;4.93;;;23.20;99.90;;;;;;2493100;23;20011;-75
2023/08/19 02:59:48;;;;;;;6.05;4.60;;;23.20;99.90;;;;;;2482548;23;20019;-75
2023/08/19 03:00:49;;;;;;;10.95;4.45;;;23.20;99.90;;;;;;2483585;23;20086;-75
2023/08/19 03:01:50;;;;;;;6.32;4.25;;;23.20;99.90;;;;;;2495624;23;20094;-75
2023/08/19 03:02:50;;;;;;;5.57;4.95;;;23.20;99.90;;;;;;2482494;23;20019;-75
2023/08/19 03:03:51;;;;;;;6.80;4.07;;;23.20;99.90;;;;;;2482354;23;20018;-75
2023/08/19 03:04:51;;;;;;;6.15;4.10;;;23.10;99.90;;;;;;2494302;23;20016;-75
2023/08/19 03:05:52;;;;;;;8.35;4.85;;;23.10;99.90;;;;;;2495088;23;20039;-74
2023/08/19 03:06:52;;;;;;;8.00;4.90;;;23.10;99.90;;;;;;2496111;23;20011;-75
2023/08/19 03:07:53;;;;;;;9.50;4.32;;;23.10;99.90;;;;;;2497020;23;20007;-75
2023/08/19 03:08:53;;;;;;;11.25;4.78;;;23.10;99.90;;;;;;2495502;23;20625;-75
2023/08/19 03:09:54;;;;;;;6.80;4.80;;;23.00;99.90;;;;;;2495987;23;21100;-75
2023/08/19 03:10:54;;;;;;;5.80;4.70;;;23.00;99.90;;;;;;2497127;23;20039;-75
2023/08/19 03:11:55;;;;;;;6.28;4.25;;;23.00;99.90;;;;;;2496674;23;20011;-75
2023/08/19 03:12:58;;;;;;;5.15;4.43;;;23.00;99.90;;;;;;2495711;23;20038;-75
2023/08/19 03:13:59;;;;;;;5.43;4.50;;;23.00;99.90;;;;;;2497146;23;19999;-75
2023/08/19 03:14:59;;;;;;;7.43;4.65;;;23.00;99.90;;;;;;2496350;23;20846;-75
2023/08/19 03:16:00;;;;;;;6.53;4.93;;;23.00;99.90;;;;;;2496506;23;20485;-75
2023/08/19 03:17:02;;;;;;;9.05;4.65;;;22.90;99.90;;;;;;2497016;23;20003;-75
2023/08/19 03:18:02;;;;;;;6.80;4.57;;;22.90;99.90;;;;;;2496253;23;20007;-75
2023/08/19 03:19:03;;;;;;;8.13;5.10;;;22.90;99.90;;;;;;2495540;23;20010;-75
2023/08/19 03:20:05;;;;;;;6.18;5.10;;;22.90;99.90;;;;;;2494275;23;20012;-75
2023/08/19 03:21:06;;;;;;;7.32;4.85;;;22.90;99.90;;;;;;2494496;23;20007;-75
2023/08/19 03:22:06;;;;;;;6.18;4.68;;;22.90;99.90;;;;;;2494541;23;20007;-75
2023/08/19 03:23:07;;;;;;;16.73;4.70;;;22.80;99.90;;;;;;2494786;23;20003;-75
2023/08/19 03:24:08;;;;;;;4.78;4.38;;;22.80;99.90;;;;;;2494328;23;20420;-75
2023/08/19 03:25:10;;;;;;;8.32;4.55;;;22.80;99.90;;;;;;2494806;23;20011;-75
2023/08/19 03:26:11;;;;;;;5.53;4.13;;;22.80;99.90;;;;;;2494556;23;20004;-75
2023/08/19 03:27:12;;;;;;;9.65;4.45;;;22.80;99.90;;;;;;2494444;23;20010;-74
2023/08/19 03:28:12;;;;;;;7.45;4.30;;;22.80;99.90;;;;;;2494677;23;20405;-74
2023/08/19 03:29:14;;;;;;;5.80;4.20;;;22.70;99.90;;;;;;2496303;23;20003;-75
2023/08/19 03:30:15;;;;;;;6.47;4.35;;;22.70;99.90;;;;;;2483460;23;20004;-75
2023/08/19 03:31:15;;;;;;;9.20;4.43;;;22.70;99.90;;;;;;2483358;23;20023;-75
2023/08/19 03:32:16;;;;;;;9.52;4.60;;;22.70;99.90;;;;;;2496095;23;20003;-75
2023/08/19 03:33:16;;;;;;;4.90;4.00;;;22.70;99.90;;;;;;2496589;23;20784;-75
2023/08/19 03:34:17;;;;;;;5.95;3.72;;;22.70;99.90;;;;;;2496829;23;20369;-75
2023/08/19 03:35:17;;;;;;;13.02;4.95;;;22.70;99.90;;;;;;2497021;23;20006;-75
2023/08/19 03:36:18;;;;;;;4.93;3.72;;;22.70;99.90;;;;;;2483448;23;20008;-75
2023/08/19 03:37:19;;;;;;;5.38;4.05;;;22.70;99.90;;;;;;2484142;23;20332;-75
2023/08/19 03:38:19;;;;;;;5.00;3.70;;;22.70;99.90;;;;;;2495091;23;20090;-75
2023/08/19 03:39:20;;;;;;;6.68;4.10;;;22.70;99.90;;;;;;2481974;23;20059;-75
2023/08/19 03:40:20;;;;;;;7.60;4.55;;;22.60;99.90;;;;;;2481635;23;20839;-75
2023/08/19 03:41:21;;;;;;;5.50;3.80;;;22.70;99.90;;;;;;2495244;23;20018;-74
2023/08/19 03:42:21;;;;;;;4.40;3.97;;;22.70;99.90;;;;;;2493584;23;20004;-74
2023/08/19 03:43:22;;;;;;;7.05;4.00;;;22.70;99.90;;;;;;2494911;23;20015;-75
2023/08/19 03:44:23;;;;;;;9.05;4.07;;;22.60;99.90;;;;;;2493442;23;20080;-75
2023/08/19 03:45:23;;;;;;;7.13;3.92;;;22.60;99.90;;;;;;2494160;23;20106;-75
2023/08/19 03:46:24;;;;;;;5.45;3.60;;;22.60;99.90;;;;;;2494801;23;20086;-75
2023/08/19 03:47:24;;;;;;;5.97;3.92;;;22.60;99.90;;;;;;2482161;23;20007;-75
2023/08/19 03:48:25;;;;;;;6.95;3.72;;;22.60;99.90;;;;;;2482005;23;20035;-75
2023/08/19 03:49:25;;;;;;;7.25;4.35;;;22.60;99.90;;;;;;2495043;23;20027;-75
2023/08/19 03:50:26;;;;;;;9.27;4.32;;;22.60;99.90;;;;;;2494020;23;20003;-75
2023/08/19 03:51:27;;;;;;;10.73;3.67;;;22.60;99.90;;;;;;2495169;23;20003;-75
2023/08/19 03:52:27;;;;;;;4.40;3.70;;;22.60;99.90;;;;;;2493868;23;20010;-75
2023/08/19 03:53:28;;;;;;;5.28;3.80;;;22.60;99.90;;;;;;2495241;23;20064;-75
2023/08/19 03:54:28;;;;;;;7.75;3.80;;;22.60;99.90;;;;;;2494050;23;20075;-75
2023/08/19 03:55:30;;;;;;;5.18;3.80;;;22.60;99.90;;;;;;2494017;23;20054;-75
2023/08/19 03:56:31;;;;;;;11.73;4.30;;;22.60;99.90;;;;;;2496425;23;20809;-75
2023/08/19 03:57:31;;;;;;;8.57;3.92;;;22.60;99.90;;;;;;2496572;23;20370;-75
2023/08/19 03:58:32;;;;;;;14.65;4.68;;;22.60;99.90;;;;;;2496127;23;20030;-75
2023/08/19 03:59:33;;;;;;;6.40;3.85;;;22.60;99.90;;;;;;2493943;23;20003;-75
2023/08/19 04:00:33;;;;;;;6.22;3.67;;;22.60;99.90;;;;;;2495195;23;20039;-75
2023/08/19 04:01:34;;;;;;;6.63;3.45;;;22.60;99.90;;;;;;2496530;23;20055;-75
2023/08/19 04:02:34;;;;;;;6.32;4.07;;;22.60;99.90;;;;;;2493518;23;20000;-75
2023/08/19 04:03:35;;;;;;;7.47;4.10;;;22.60;99.90;;;;;;2496686;23;20511;-75
2023/08/19 04:04:36;;;;;;;4.85;3.45;;;22.60;99.90;;;;;;2496206;23;20007;-75
2023/08/19 04:05:37;;;;;;;4.50;3.67;;;22.60;99.90;;;;;;2495836;23;20000;-75
2023/08/19 04:06:37;;;;;;;3.97;3.47;;;22.60;99.90;;;;;;2496355;23;20019;-75
2023/08/19 04:07:38;;;;;;;5.22;3.67;;;22.60;99.90;;;;;;2493486;23;20082;-75
2023/08/19 04:08:39;;;;;;;5.28;3.55;;;22.50;99.90;;;;;;2495584;23;20411;-75
2023/08/19 04:09:40;;;;;;;5.20;4.20;;;22.50;99.90;;;;;;2495709;23;20004;-75
2023/08/19 04:10:40;;;;;;;7.82;3.70;;;22.50;99.90;;;;;;2482942;23;20008;-75
2023/08/19 04:11:41;;;;;;;5.30;3.70;;;22.50;99.90;;;;;;2497141;23;20424;-75
2023/08/19 04:12:41;;;;;;;6.55;3.45;;;22.50;99.90;;;;;;2495346;23;20043;-75
2023/08/19 04:13:42;;;;;;;5.20;3.75;;;22.50;99.90;;;;;;2496627;23;20090;-75
2023/08/19 04:14:42;;;;;;;4.35;3.58;;;22.50;99.90;;;;;;2496689;23;20009;-75
2023/08/19 04:15:43;;;;;;;9.15;3.58;;;22.50;99.90;;;;;;2494587;23;20490;-75
2023/08/19 04:16:44;;;;;;;7.38;3.55;;;22.50;99.90;;;;;;2495526;23;20059;-75
2023/08/19 04:17:45;;;;;;;5.90;3.20;;;22.50;99.90;;;;;;2495759;23;20430;-75
2023/08/19 04:18:45;;;;;;;5.40;2.95;;;22.60;99.90;;;;;;2481314;23;20515;-75
2023/08/19 04:19:46;;;;;;;6.90;4.15;;;22.60;99.90;;;;;;2482635;23;20862;-75
2023/08/19 04:20:46;;;;;;;3.45;3.13;;;22.60;99.90;;;;;;2493625;23;20015;-75
2023/08/19 04:21:47;;;;;;;7.18;3.65;;;22.60;99.90;;;;;;2494137;23;20007;-75
2023/08/19 04:22:49;;;;;;;5.55;3.30;;;22.70;99.90;;;;;;2492569;23;20440;-75
2023/08/19 04:23:50;;;;;;;7.25;4.20;;;22.70;99.90;;;;;;2483563;23;20015;-75
2023/08/19 04:24:52;;;;;;;4.90;3.58;;;22.70;99.90;;;;;;2484042;23;20225;-75
2023/08/19 04:25:55;;;;;;;6.18;3.30;;;22.80;99.90;;;;;;2496319;23;20722;-75
2023/08/19 04:26:55;;;;;;;4.35;3.45;;;22.80;99.90;;;;;;2496645;23;20006;-75
2023/08/19 04:27:56;;;;;;;4.22;3.17;;;22.70;99.90;;;;;;2483403;23;20152;-75
2023/08/19 04:28:57;;;;;;;4.70;3.58;;;22.80;99.90;;;;;;2481164;23;20489;-75
2023/08/19 04:29:57;;;;;;;8.65;3.45;;;22.80;99.90;;;;;;2494867;23;20034;-75
2023/08/19 04:31:03;;;;;;;6.40;3.13;;;22.80;99.90;;;;;;2496365;23;20003;-75
2023/08/19 04:32:04;;;;;;;3.42;3.03;;;22.80;99.90;;;;;;2494807;23;19996;-75
2023/08/19 04:33:04;;;;;;;6.80;3.80;;;22.80;99.90;;;;;;2496356;23;20008;-75
2023/08/19 04:34:05;;;;;;;4.70;3.05;;;22.80;99.90;;;;;;2496553;23;20424;-75
2023/08/19 04:35:06;;;;;;;3.78;3.10;;;22.90;99.90;;;;;;2496345;23;20051;-75
2023/08/19 04:36:07;;;;;;;4.38;3.30;;;22.90;99.90;;;;;;2496927;23;20019;-75
2023/08/19 04:37:08;;;;;;;4.00;3.42;;;22.90;99.90;;;;;;2496296;23;20013;-75
2023/08/19 04:38:09;;;;;;;3.78;3.40;;;22.90;99.90;;;;;;2495858;23;20004;-75
2023/08/19 04:39:10;;;;;;;6.72;3.15;;;22.90;99.90;;;;;;2493900;23;20492;-75
2023/08/19 04:40:10;;;;;;;8.02;2.88;;;22.90;99.90;;;;;;2495007;23;20470;-75
2023/08/19 04:41:11;;;;;;;6.47;3.50;;;22.90;99.90;;;;;;2496234;23;20011;-75
2023/08/19 04:42:11;;;;;;;5.15;3.63;;;22.90;99.90;;;;;;2494947;23;20056;-75
2023/08/19 04:43:12;;;;;;;4.60;3.22;;;23.00;99.90;;;;;;2493970;23;20015;-75
2023/08/19 04:44:13;;;;;;;5.07;3.10;;;22.90;99.90;;;;;;2494484;23;20008;-75
2023/08/19 04:45:14;;;;;;;4.55;3.08;;;22.90;99.90;;;;;;2483279;23;20011;-75
2023/08/19 04:46:14;;;;;;;4.10;2.90;;;23.00;99.90;;;;;;2484437;23;20133;-75
2023/08/19 04:47:15;;;;;;;4.90;3.03;;;23.00;99.90;;;;;;2495749;23;20007;-75
2023/08/19 04:48:15;;;;;;;5.70;2.72;;;23.00;99.90;;;;;;2494479;23;20007;-75
2023/08/19 04:49:16;;;;;;;5.47;3.35;;;23.00;99.90;;;;;;2494787;23;20011;-75
2023/08/19 04:50:17;;;;;;;5.47;3.13;;;23.00;99.90;;;;;;2481749;23;20433;-75
2023/08/19 04:51:17;;;;;;;6.68;3.65;;;23.00;99.90;;;;;;2481788;23;20006;-75
2023/08/19 04:52:18;;;;;;;5.22;3.33;;;23.00;99.90;;;;;;2493501;23;20003;-75
2023/08/19 04:53:18;;;;;;;5.22;2.92;;;23.10;99.90;;;;;;2493787;23;20432;-75
2023/08/19 04:54:19;;;;;;;5.63;3.17;;;23.10;99.90;;;;;;2494947;23;20011;-75
2023/08/19 04:55:19;;;;;;;6.85;3.45;;;23.10;99.90;;;;;;2493943;23;20014;-75
2023/08/19 04:56:20;;;;;;;3.50;3.10;;;23.10;99.90;;;;;;2493386;23;20423;-75
2023/08/19 04:57:21;;;;;;;5.35;3.53;;;23.10;99.90;;;;;;2494122;23;20670;-75
2023/08/19 04:58:21;;;;;;;8.98;3.70;;;23.10;99.90;;;;;;2496298;23;20034;-75
2023/08/19 04:59:22;;;;;;;6.05;3.65;;;23.20;99.90;;;;;;2495663;23;19999;-75
2023/08/19 05:00:23;;;;;;;3.85;3.30;;;23.20;99.90;;;;;;2496531;23;20684;-75
2023/08/19 05:01:23;;;;;;;5.60;3.78;;;23.10;99.90;;;;;;2482873;23;20065;-75
2023/08/19 05:02:24;;;;;;;6.70;4.10;;;23.20;99.90;;;;;;2481296;23;20075;-75
2023/08/19 05:03:24;;;;;;;6.63;3.33;;;23.20;99.90;;;;;;2494122;23;20003;-75
2023/08/19 05:04:25;;;;;;;5.40;3.47;;;23.20;99.90;;;;;;2494394;23;20007;-75
2023/08/19 05:05:26;;;;;;;7.78;3.92;;;23.20;99.90;;;;;;2496722;23;20004;-75
2023/08/19 05:06:26;;;;;;;5.82;3.50;;;23.20;99.90;;;;;;2494077;23;20039;-75
2023/08/19 05:07:27;;;;;;;9.43;3.67;;;23.20;99.90;;;;;;2494296;23;20758;-75
2023/08/19 05:08:27;;;;;;;6.72;3.55;;;23.20;99.90;;;;;;2495437;23;20003;-75
2023/08/19 05:09:28;;;;;;;4.57;3.63;;;23.20;99.90;;;;;;2493667;23;20018;-75
2023/08/19 05:10:28;;;;;;;4.85;3.20;;;23.20;99.90;;;;;;2492832;23;20003;-75
2023/08/19 05:11:29;;;;;;;5.93;3.70;;;23.20;99.90;;;;;;2481781;23;20018;-75
2023/08/19 05:12:30;;;;;;;6.25;3.65;;;23.20;99.90;;;;;;2480521;23;20091;-75
2023/08/19 05:13:30;;;;;;;5.75;3.20;;;23.20;99.90;;;;;;2494445;23;20048;-75
2023/08/19 05:14:32;;;;;;;4.70;3.13;;;23.20;99.90;;;;;;2496202;23;20008;-75
2023/08/19 05:15:32;;;;;;;6.65;3.60;;;23.20;99.90;;;;;;2483347;23;20012;-75
2023/08/19 05:16:33;;;;;;;6.22;3.25;;;23.30;99.90;;;;;;2483817;23;20008;-75
2023/08/19 05:17:33;;;;;;;7.75;3.47;;;23.20;99.90;;;;;;2493692;23;20094;-75
2023/08/19 05:18:34;;;;;;;7.40;3.20;;;23.30;99.90;;;;;;2493509;23;20439;-75
2023/08/19 05:19:36;;;;;;;5.57;3.70;;;23.30;99.90;;;;;;2493922;23;19999;-75
2023/08/19 05:20:36;;;;;;;7.22;3.33;;;23.30;99.90;;;;;;2493636;23;20348;-75
2023/08/19 05:21:37;;;;;;;6.13;3.58;;;23.30;99.90;;;;;;2482192;23;20011;-75